Terminal Aerodrome Forecast
Issued by NWS Billings, MT

Home | Current Version | Previous Version | Text Only | Print | Product List | Glossary On
Versions: 1 2 3 4 5 6 7 8 9 10 11 12 13 14
000
FTUS45 KBYZ 260522
TAFSHR
TAF
KSHR 260522Z 2606/2706 29013KT P6SM VCSH BKN060 OVC080
     FM260900 31010KT P6SM FEW070
     FM261200 33006KT P6SM SKC
     FM270000 VRB04KT P6SM SKC=

USA.gov is the U.S. government's official web portal to all federal, state and local government web resources and services.